sensor_id;sensor_type;location;lat;lon;timestamp;P1;durP1;ratioP1;P2;durP2;ratioP2
77625;SDS011;66794;43.764;10.436;2023-02-10T00:01:15;48.22;;;28.35;;
77625;SDS011;66794;43.764;10.436;2023-02-10T00:03:45;51.90;;;28.23;;
77625;SDS011;66794;43.764;10.436;2023-02-10T00:06:12;54.55;;;31.48;;
77625;SDS011;66794;43.764;10.436;2023-02-10T00:08:38;50.83;;;28.65;;
77625;SDS011;66794;43.764;10.436;2023-02-10T00:11:08;50.13;;;27.45;;
77625;SDS011;66794;43.764;10.436;2023-02-10T00:13:38;50.08;;;28.33;;
77625;SDS011;66794;43.764;10.436;2023-02-10T00:16:04;46.63;;;27.92;;
77625;SDS011;66794;43.764;10.436;2023-02-10T00:18:31;46.08;;;26.00;;
77625;SDS011;66794;43.764;10.436;2023-02-10T00:23:39;47.70;;;25.70;;
77625;SDS011;66794;43.764;10.436;2023-02-10T00:26:05;42.35;;;23.33;;
77625;SDS011;66794;43.764;10.436;2023-02-10T00:28:33;44.33;;;24.63;;
77625;SDS011;66794;43.764;10.436;2023-02-10T00:31:04;45.67;;;25.48;;
77625;SDS011;66794;43.764;10.436;2023-02-10T00:33:31;36.60;;;21.60;;
77625;SDS011;66794;43.764;10.436;2023-02-10T00:35:56;37.08;;;20.45;;
77625;SDS011;66794;43.764;10.436;2023-02-10T00:38:22;35.20;;;20.88;;
77625;SDS011;66794;43.764;10.436;2023-02-10T00:40:47;36.30;;;20.92;;
77625;SDS011;66794;43.764;10.436;2023-02-10T00:43:13;35.10;;;19.90;;
77625;SDS011;66794;43.764;10.436;2023-02-10T00:45:38;38.42;;;19.90;;
77625;SDS011;66794;43.764;10.436;2023-02-10T00:48:04;34.20;;;20.40;;
77625;SDS011;66794;43.764;10.436;2023-02-10T00:50:29;43.80;;;23.33;;
77625;SDS011;66794;43.764;10.436;2023-02-10T00:52:54;46.05;;;27.23;;
77625;SDS011;66794;43.764;10.436;2023-02-10T00:55:20;51.58;;;27.98;;
77625;SDS011;66794;43.764;10.436;2023-02-10T00:57:45;51.50;;;28.50;;
77625;SDS011;66794;43.764;10.436;2023-02-10T01:00:11;48.22;;;27.17;;
77625;SDS011;66794;43.764;10.436;2023-02-10T01:02:37;43.72;;;26.85;;
77625;SDS011;66794;43.764;10.436;2023-02-10T01:05:02;50.75;;;28.27;;
77625;SDS011;66794;43.764;10.436;2023-02-10T01:07:28;50.25;;;26.52;;
77625;SDS011;66794;43.764;10.436;2023-02-10T01:09:54;47.70;;;27.38;;
77625;SDS011;66794;43.764;10.436;2023-02-10T01:12:20;48.78;;;27.08;;
77625;SDS011;66794;43.764;10.436;2023-02-10T01:14:45;49.40;;;26.00;;
77625;SDS011;66794;43.764;10.436;2023-02-10T01:17:11;55.15;;;28.50;;
77625;SDS011;66794;43.764;10.436;2023-02-10T01:19:36;50.65;;;29.50;;
77625;SDS011;66794;43.764;10.436;2023-02-10T01:22:02;57.15;;;30.23;;
77625;SDS011;66794;43.764;10.436;2023-02-10T01:24:27;49.42;;;27.65;;
77625;SDS011;66794;43.764;10.436;2023-02-10T01:26:53;45.85;;;26.13;;
77625;SDS011;66794;43.764;10.436;2023-02-10T01:29:18;47.90;;;28.25;;
77625;SDS011;66794;43.764;10.436;2023-02-10T01:31:43;47.17;;;26.92;;
77625;SDS011;66794;43.764;10.436;2023-02-10T01:34:09;50.25;;;28.35;;
77625;SDS011;66794;43.764;10.436;2023-02-10T01:36:35;47.33;;;28.10;;
77625;SDS011;66794;43.764;10.436;2023-02-10T01:39:00;48.78;;;28.00;;
77625;SDS011;66794;43.764;10.436;2023-02-10T01:41:26;50.13;;;28.50;;
77625;SDS011;66794;43.764;10.436;2023-02-10T01:43:56;52.45;;;29.63;;
77625;SDS011;66794;43.764;10.436;2023-02-10T01:46:24;55.75;;;31.27;;
77625;SDS011;66794;43.764;10.436;2023-02-10T01:48:51;57.72;;;31.98;;
77625;SDS011;66794;43.764;10.436;2023-02-10T01:51:18;52.97;;;29.30;;
77625;SDS011;66794;43.764;10.436;2023-02-10T01:53:47;53.35;;;29.63;;
77625;SDS011;66794;43.764;10.436;2023-02-10T01:56:13;50.17;;;27.83;;
77625;SDS011;66794;43.764;10.436;2023-02-10T01:58:40;45.40;;;26.83;;
77625;SDS011;66794;43.764;10.436;2023-02-10T02:01:09;52.65;;;29.92;;
77625;SDS011;66794;43.764;10.436;2023-02-10T02:03:34;50.05;;;28.35;;
77625;SDS011;66794;43.764;10.436;2023-02-10T02:06:01;47.83;;;27.92;;
77625;SDS011;66794;43.764;10.436;2023-02-10T02:08:29;47.22;;;28.45;;
77625;SDS011;66794;43.764;10.436;2023-02-10T02:11:04;49.85;;;26.77;;
77625;SDS011;66794;43.764;10.436;2023-02-10T02:34:02;60.58;;;31.98;;
77625;SDS011;66794;43.764;10.436;2023-02-10T02:36:38;52.20;;;27.48;;
77625;SDS011;66794;43.764;10.436;2023-02-10T02:39:08;48.05;;;27.15;;
77625;SDS011;66794;43.764;10.436;2023-02-10T02:41:33;51.45;;;27.23;;
77625;SDS011;66794;43.764;10.436;2023-02-10T02:43:59;51.35;;;27.23;;
77625;SDS011;66794;43.764;10.436;2023-02-10T02:57:03;46.05;;;27.50;;
77625;SDS011;66794;43.764;10.436;2023-02-10T02:59:47;50.15;;;27.52;;
77625;SDS011;66794;43.764;10.436;2023-02-10T03:02:16;49.00;;;27.08;;
77625;SDS011;66794;43.764;10.436;2023-02-10T03:04:45;50.65;;;27.75;;
77625;SDS011;66794;43.764;10.436;2023-02-10T03:07:11;46.88;;;26.58;;
77625;SDS011;66794;43.764;10.436;2023-02-10T03:09:36;49.13;;;25.85;;
77625;SDS011;66794;43.764;10.436;2023-02-10T03:12:02;45.58;;;25.95;;
77625;SDS011;66794;43.764;10.436;2023-02-10T03:14:28;45.42;;;24.95;;
77625;SDS011;66794;43.764;10.436;2023-02-10T03:16:53;43.90;;;24.70;;
77625;SDS011;66794;43.764;10.436;2023-02-10T03:19:19;42.80;;;24.23;;
77625;SDS011;66794;43.764;10.436;2023-02-10T03:21:44;44.15;;;25.33;;
77625;SDS011;66794;43.764;10.436;2023-02-10T03:24:10;45.50;;;25.60;;
77625;SDS011;66794;43.764;10.436;2023-02-10T03:26:36;44.53;;;24.40;;
77625;SDS011;66794;43.764;10.436;2023-02-10T03:29:02;48.00;;;25.90;;
77625;SDS011;66794;43.764;10.436;2023-02-10T03:31:28;44.08;;;24.85;;
77625;SDS011;66794;43.764;10.436;2023-02-10T03:33:53;43.65;;;24.63;;
77625;SDS011;66794;43.764;10.436;2023-02-10T03:36:19;42.10;;;24.58;;
77625;SDS011;66794;43.764;10.436;2023-02-10T03:38:44;44.67;;;25.05;;
77625;SDS011;66794;43.764;10.436;2023-02-10T03:41:10;48.05;;;25.80;;
77625;SDS011;66794;43.764;10.436;2023-02-10T03:43:36;45.38;;;24.27;;
77625;SDS011;66794;43.764;10.436;2023-02-10T03:46:02;45.83;;;25.50;;
77625;SDS011;66794;43.764;10.436;2023-02-10T03:48:29;45.55;;;24.98;;
77625;SDS011;66794;43.764;10.436;2023-02-10T03:50:59;43.45;;;25.10;;
77625;SDS011;66794;43.764;10.436;2023-02-10T03:53:26;46.17;;;25.17;;
77625;SDS011;66794;43.764;10.436;2023-02-10T03:55:53;42.00;;;24.15;;
77625;SDS011;66794;43.764;10.436;2023-02-10T03:58:18;45.40;;;24.85;;
77625;SDS011;66794;43.764;10.436;2023-02-10T04:00:44;42.67;;;24.10;;
77625;SDS011;66794;43.764;10.436;2023-02-10T04:03:09;44.83;;;24.55;;
77625;SDS011;66794;43.764;10.436;2023-02-10T04:05:35;41.42;;;24.13;;
77625;SDS011;66794;43.764;10.436;2023-02-10T04:08:00;46.00;;;24.70;;
77625;SDS011;66794;43.764;10.436;2023-02-10T04:10:26;45.78;;;25.35;;
77625;SDS011;66794;43.764;10.436;2023-02-10T04:12:51;41.90;;;24.95;;
77625;SDS011;66794;43.764;10.436;2023-02-10T04:15:17;47.08;;;25.48;;
77625;SDS011;66794;43.764;10.436;2023-02-10T04:17:43;46.10;;;25.00;;
77625;SDS011;66794;43.764;10.436;2023-02-10T04:20:08;42.25;;;23.83;;
77625;SDS011;66794;43.764;10.436;2023-02-10T04:22:35;45.20;;;25.60;;
77625;SDS011;66794;43.764;10.436;2023-02-10T04:25:00;46.70;;;26.17;;
77625;SDS011;66794;43.764;10.436;2023-02-10T04:27:26;47.55;;;26.00;;
77625;SDS011;66794;43.764;10.436;2023-02-10T04:29:51;49.40;;;26.05;;
77625;SDS011;66794;43.764;10.436;2023-02-10T04:32:17;57.00;;;27.13;;
77625;SDS011;66794;43.764;10.436;2023-02-10T04:34:42;51.33;;;27.33;;
77625;SDS011;66794;43.764;10.436;2023-02-10T04:37:07;56.47;;;27.77;;
77625;SDS011;66794;43.764;10.436;2023-02-10T04:39:33;52.72;;;27.80;;
77625;SDS011;66794;43.764;10.436;2023-02-10T04:41:58;57.63;;;27.42;;
77625;SDS011;66794;43.764;10.436;2023-02-10T04:44:24;51.75;;;26.63;;
77625;SDS011;66794;43.764;10.436;2023-02-10T04:46:49;49.20;;;25.88;;
77625;SDS011;66794;43.764;10.436;2023-02-10T04:49:16;48.28;;;25.38;;
77625;SDS011;66794;43.764;10.436;2023-02-10T04:51:41;53.67;;;27.10;;
77625;SDS011;66794;43.764;10.436;2023-02-10T04:54:08;50.50;;;25.10;;
77625;SDS011;66794;43.764;10.436;2023-02-10T04:56:33;52.72;;;30.38;;
77625;SDS011;66794;43.764;10.436;2023-02-10T04:58:58;59.80;;;31.88;;
77625;SDS011;66794;43.764;10.436;2023-02-10T05:01:24;57.95;;;33.50;;
77625;SDS011;66794;43.764;10.436;2023-02-10T05:03:49;53.22;;;28.42;;
77625;SDS011;66794;43.764;10.436;2023-02-10T05:06:15;46.95;;;25.40;;
77625;SDS011;66794;43.764;10.436;2023-02-10T05:08:41;49.15;;;26.13;;
77625;SDS011;66794;43.764;10.436;2023-02-10T05:11:08;46.25;;;27.80;;
77625;SDS011;66794;43.764;10.436;2023-02-10T05:13:34;51.28;;;26.45;;
77625;SDS011;66794;43.764;10.436;2023-02-10T05:16:00;47.95;;;25.00;;
77625;SDS011;66794;43.764;10.436;2023-02-10T05:18:28;46.92;;;26.00;;
77625;SDS011;66794;43.764;10.436;2023-02-10T05:20:57;43.78;;;23.73;;
77625;SDS011;66794;43.764;10.436;2023-02-10T05:23:23;46.60;;;24.60;;
77625;SDS011;66794;43.764;10.436;2023-02-10T05:25:49;60.45;;;32.20;;
77625;SDS011;66794;43.764;10.436;2023-02-10T05:28:15;64.60;;;32.40;;
77625;SDS011;66794;43.764;10.436;2023-02-10T05:30:40;52.78;;;28.80;;
77625;SDS011;66794;43.764;10.436;2023-02-10T05:33:06;46.97;;;26.15;;
77625;SDS011;66794;43.764;10.436;2023-02-10T05:35:31;45.33;;;25.23;;
77625;SDS011;66794;43.764;10.436;2023-02-10T05:37:57;45.95;;;25.00;;
77625;SDS011;66794;43.764;10.436;2023-02-10T05:40:22;42.95;;;24.63;;
77625;SDS011;66794;43.764;10.436;2023-02-10T05:42:48;46.03;;;25.20;;
77625;SDS011;66794;43.764;10.436;2023-02-10T05:45:14;44.83;;;24.67;;
77625;SDS011;66794;43.764;10.436;2023-02-10T05:47:40;45.92;;;24.65;;
77625;SDS011;66794;43.764;10.436;2023-02-10T05:50:05;47.63;;;24.90;;
77625;SDS011;66794;43.764;10.436;2023-02-10T05:52:31;43.90;;;24.45;;
77625;SDS011;66794;43.764;10.436;2023-02-10T05:54:57;45.17;;;23.77;;
77625;SDS011;66794;43.764;10.436;2023-02-10T05:57:22;43.25;;;23.48;;
77625;SDS011;66794;43.764;10.436;2023-02-10T05:59:47;43.03;;;23.77;;
77625;SDS011;66794;43.764;10.436;2023-02-10T06:02:13;41.70;;;23.17;;
77625;SDS011;66794;43.764;10.436;2023-02-10T06:04:38;41.40;;;23.60;;
77625;SDS011;66794;43.764;10.436;2023-02-10T06:07:04;41.20;;;23.73;;
77625;SDS011;66794;43.764;10.436;2023-02-10T06:09:30;38.85;;;22.85;;
77625;SDS011;66794;43.764;10.436;2023-02-10T06:11:55;40.70;;;22.77;;
77625;SDS011;66794;43.764;10.436;2023-02-10T06:14:21;45.55;;;23.80;;
77625;SDS011;66794;43.764;10.436;2023-02-10T06:16:46;47.40;;;24.27;;
77625;SDS011;66794;43.764;10.436;2023-02-10T06:19:12;43.00;;;23.65;;
77625;SDS011;66794;43.764;10.436;2023-02-10T06:21:37;46.28;;;24.48;;
77625;SDS011;66794;43.764;10.436;2023-02-10T06:24:03;53.85;;;30.40;;
77625;SDS011;66794;43.764;10.436;2023-02-10T06:26:28;52.97;;;26.67;;
77625;SDS011;66794;43.764;10.436;2023-02-10T06:28:54;57.63;;;31.63;;
77625;SDS011;66794;43.764;10.436;2023-02-10T06:31:21;59.42;;;30.55;;
77625;SDS011;66794;43.764;10.436;2023-02-10T06:33:47;73.03;;;35.88;;
77625;SDS011;66794;43.764;10.436;2023-02-10T06:36:12;60.67;;;30.00;;
77625;SDS011;66794;43.764;10.436;2023-02-10T06:38:38;48.35;;;24.23;;
77625;SDS011;66794;43.764;10.436;2023-02-10T06:41:04;50.97;;;25.70;;
77625;SDS011;66794;43.764;10.436;2023-02-10T06:43:31;52.17;;;26.15;;
77625;SDS011;66794;43.764;10.436;2023-02-10T06:45:56;49.00;;;25.25;;
77625;SDS011;66794;43.764;10.436;2023-02-10T06:48:22;45.85;;;24.80;;
77625;SDS011;66794;43.764;10.436;2023-02-10T06:50:47;65.30;;;32.80;;
77625;SDS011;66794;43.764;10.436;2023-02-10T06:53:13;49.22;;;25.40;;
77625;SDS011;66794;43.764;10.436;2023-02-10T06:55:38;42.70;;;23.50;;
77625;SDS011;66794;43.764;10.436;2023-02-10T06:58:04;53.58;;;28.58;;
77625;SDS011;66794;43.764;10.436;2023-02-10T07:00:30;50.63;;;23.35;;
77625;SDS011;66794;43.764;10.436;2023-02-10T07:02:57;45.47;;;23.50;;
77625;SDS011;66794;43.764;10.436;2023-02-10T07:05:23;45.58;;;23.10;;
77625;SDS011;66794;43.764;10.436;2023-02-10T07:07:50;45.95;;;24.02;;
77625;SDS011;66794;43.764;10.436;2023-02-10T07:10:24;43.05;;;24.02;;
77625;SDS011;66794;43.764;10.436;2023-02-10T07:12:50;45.10;;;23.65;;
77625;SDS011;66794;43.764;10.436;2023-02-10T07:15:17;44.50;;;24.10;;
77625;SDS011;66794;43.764;10.436;2023-02-10T07:17:44;43.63;;;25.42;;
77625;SDS011;66794;43.764;10.436;2023-02-10T07:20:11;43.80;;;23.45;;
77625;SDS011;66794;43.764;10.436;2023-02-10T07:22:37;43.50;;;24.48;;
77625;SDS011;66794;43.764;10.436;2023-02-10T07:25:02;48.70;;;25.75;;
77625;SDS011;66794;43.764;10.436;2023-02-10T07:27:29;54.88;;;27.63;;
77625;SDS011;66794;43.764;10.436;2023-02-10T07:29:54;54.88;;;26.30;;
77625;SDS011;66794;43.764;10.436;2023-02-10T07:32:19;55.80;;;25.02;;
77625;SDS011;66794;43.764;10.436;2023-02-10T07:34:45;48.05;;;25.30;;
77625;SDS011;66794;43.764;10.436;2023-02-10T07:37:11;46.50;;;25.42;;
77625;SDS011;66794;43.764;10.436;2023-02-10T07:39:38;49.75;;;25.98;;
77625;SDS011;66794;43.764;10.436;2023-02-10T07:42:04;49.40;;;25.85;;
77625;SDS011;66794;43.764;10.436;2023-02-10T07:44:29;41.00;;;22.45;;
77625;SDS011;66794;43.764;10.436;2023-02-10T07:46:55;50.72;;;24.65;;
77625;SDS011;66794;43.764;10.436;2023-02-10T07:49:20;41.58;;;23.55;;
77625;SDS011;66794;43.764;10.436;2023-02-10T07:51:45;40.72;;;23.45;;
77625;SDS011;66794;43.764;10.436;2023-02-10T07:54:11;41.78;;;22.90;;
77625;SDS011;66794;43.764;10.436;2023-02-10T07:56:37;49.10;;;25.35;;
77625;SDS011;66794;43.764;10.436;2023-02-10T07:59:03;48.45;;;24.90;;
77625;SDS011;66794;43.764;10.436;2023-02-10T08:01:28;43.60;;;24.35;;
77625;SDS011;66794;43.764;10.436;2023-02-10T08:03:54;44.15;;;24.27;;
77625;SDS011;66794;43.764;10.436;2023-02-10T08:06:22;44.58;;;24.33;;
77625;SDS011;66794;43.764;10.436;2023-02-10T08:08:49;42.38;;;24.42;;
77625;SDS011;66794;43.764;10.436;2023-02-10T08:11:15;46.22;;;24.85;;
77625;SDS011;66794;43.764;10.436;2023-02-10T08:13:42;39.90;;;22.30;;
77625;SDS011;66794;43.764;10.436;2023-02-10T08:16:07;46.50;;;24.73;;
77625;SDS011;66794;43.764;10.436;2023-02-10T08:18:37;49.95;;;27.60;;
77625;SDS011;66794;43.764;10.436;2023-02-10T08:21:02;56.35;;;28.85;;
77625;SDS011;66794;43.764;10.436;2023-02-10T08:23:30;48.85;;;27.10;;
77625;SDS011;66794;43.764;10.436;2023-02-10T08:25:56;49.90;;;27.50;;
77625;SDS011;66794;43.764;10.436;2023-02-10T08:28:22;46.35;;;27.27;;
77625;SDS011;66794;43.764;10.436;2023-02-10T08:30:49;48.65;;;27.35;;
77625;SDS011;66794;43.764;10.436;2023-02-10T08:33:14;47.50;;;27.60;;
77625;SDS011;66794;43.764;10.436;2023-02-10T08:35:40;59.03;;;30.95;;
77625;SDS011;66794;43.764;10.436;2023-02-10T08:38:05;57.08;;;30.98;;
77625;SDS011;66794;43.764;10.436;2023-02-10T08:40:32;60.72;;;30.33;;
77625;SDS011;66794;43.764;10.436;2023-02-10T08:42:57;59.30;;;31.80;;
77625;SDS011;66794;43.764;10.436;2023-02-10T08:45:23;55.92;;;32.42;;
77625;SDS011;66794;43.764;10.436;2023-02-10T08:47:48;57.97;;;31.63;;
77625;SDS011;66794;43.764;10.436;2023-02-10T08:50:15;81.18;;;44.72;;
77625;SDS011;66794;43.764;10.436;2023-02-10T08:52:40;122.57;;;64.57;;
77625;SDS011;66794;43.764;10.436;2023-02-10T08:55:06;113.70;;;58.53;;
77625;SDS011;66794;43.764;10.436;2023-02-10T08:57:32;114.80;;;56.03;;
77625;SDS011;66794;43.764;10.436;2023-02-10T08:59:58;77.18;;;42.38;;
77625;SDS011;66794;43.764;10.436;2023-02-10T09:02:24;49.92;;;28.02;;
77625;SDS011;66794;43.764;10.436;2023-02-10T09:04:50;48.40;;;27.65;;
77625;SDS011;66794;43.764;10.436;2023-02-10T09:07:15;46.85;;;27.67;;
77625;SDS011;66794;43.764;10.436;2023-02-10T09:09:41;48.47;;;28.13;;
77625;SDS011;66794;43.764;10.436;2023-02-10T09:12:08;45.03;;;25.90;;
77625;SDS011;66794;43.764;10.436;2023-02-10T09:14:39;43.78;;;23.55;;
77625;SDS011;66794;43.764;10.436;2023-02-10T09:17:05;39.22;;;22.95;;
77625;SDS011;66794;43.764;10.436;2023-02-10T09:19:33;41.80;;;23.70;;
77625;SDS011;66794;43.764;10.436;2023-02-10T09:22:00;45.90;;;24.13;;
77625;SDS011;66794;43.764;10.436;2023-02-10T09:24:25;43.28;;;25.27;;
77625;SDS011;66794;43.764;10.436;2023-02-10T09:26:51;48.42;;;29.20;;
77625;SDS011;66794;43.764;10.436;2023-02-10T09:29:16;40.67;;;22.45;;
77625;SDS011;66794;43.764;10.436;2023-02-10T09:31:42;51.10;;;29.70;;
77625;SDS011;66794;43.764;10.436;2023-02-10T09:34:07;45.47;;;24.60;;
77625;SDS011;66794;43.764;10.436;2023-02-10T09:36:33;54.47;;;29.35;;
77625;SDS011;66794;43.764;10.436;2023-02-10T09:38:59;38.90;;;23.38;;
77625;SDS011;66794;43.764;10.436;2023-02-10T09:49:24;45.20;;;25.30;;
77625;SDS011;66794;43.764;10.436;2023-02-10T09:54:37;45.78;;;24.10;;
77625;SDS011;66794;43.764;10.436;2023-02-10T09:57:04;39.10;;;22.88;;
77625;SDS011;66794;43.764;10.436;2023-02-10T09:59:36;40.03;;;24.83;;
77625;SDS011;66794;43.764;10.436;2023-02-10T10:02:11;42.75;;;22.67;;
77625;SDS011;66794;43.764;10.436;2023-02-10T10:04:38;33.58;;;19.20;;
77625;SDS011;66794;43.764;10.436;2023-02-10T10:09:46;36.28;;;21.63;;
77625;SDS011;66794;43.764;10.436;2023-02-10T10:12:21;36.13;;;22.98;;
77625;SDS011;66794;43.764;10.436;2023-02-10T10:14:46;37.80;;;22.58;;
77625;SDS011;66794;43.764;10.436;2023-02-10T10:26:26;51.85;;;30.15;;
77625;SDS011;66794;43.764;10.436;2023-02-10T10:32:19;41.38;;;24.45;;
77625;SDS011;66794;43.764;10.436;2023-02-10T10:34:50;38.05;;;21.92;;
77625;SDS011;66794;43.764;10.436;2023-02-10T10:37:19;34.60;;;19.95;;
77625;SDS011;66794;43.764;10.436;2023-02-10T10:39:49;32.22;;;20.42;;
77625;SDS011;66794;43.764;10.436;2023-02-10T10:44:49;33.75;;;20.50;;
77625;SDS011;66794;43.764;10.436;2023-02-10T10:50:12;38.33;;;27.05;;
77625;SDS011;66794;43.764;10.436;2023-02-10T10:52:40;31.35;;;20.05;;
77625;SDS011;66794;43.764;10.436;2023-02-10T10:55:13;34.67;;;21.77;;
77625;SDS011;66794;43.764;10.436;2023-02-10T10:57:44;38.63;;;24.98;;
77625;SDS011;66794;43.764;10.436;2023-02-10T11:02:57;35.20;;;24.52;;
77625;SDS011;66794;43.764;10.436;2023-02-10T11:05:26;87.93;;;56.72;;
77625;SDS011;66794;43.764;10.436;2023-02-10T11:07:55;62.75;;;40.22;;
77625;SDS011;66794;43.764;10.436;2023-02-10T11:10:31;34.35;;;21.30;;
77625;SDS011;66794;43.764;10.436;2023-02-10T11:13:02;33.95;;;21.20;;
77625;SDS011;66794;43.764;10.436;2023-02-10T11:18:12;37.92;;;21.45;;
77625;SDS011;66794;43.764;10.436;2023-02-10T11:20:55;32.47;;;21.63;;
77625;SDS011;66794;43.764;10.436;2023-02-10T11:23:46;32.22;;;21.27;;
77625;SDS011;66794;43.764;10.436;2023-02-10T11:26:19;32.67;;;21.55;;
77625;SDS011;66794;43.764;10.436;2023-02-10T11:28:52;35.97;;;22.00;;
77625;SDS011;66794;43.764;10.436;2023-02-10T11:34:03;33.33;;;20.35;;
77625;SDS011;66794;43.764;10.436;2023-02-10T11:36:30;30.25;;;20.85;;
77625;SDS011;66794;43.764;10.436;2023-02-10T11:39:02;32.40;;;21.17;;
77625;SDS011;66794;43.764;10.436;2023-02-10T11:41:41;36.58;;;20.27;;
77625;SDS011;66794;43.764;10.436;2023-02-10T11:47:03;27.38;;;17.13;;
77625;SDS011;66794;43.764;10.436;2023-02-10T11:49:41;26.60;;;17.20;;
77625;SDS011;66794;43.764;10.436;2023-02-10T11:52:11;26.17;;;16.33;;
77625;SDS011;66794;43.764;10.436;2023-02-10T11:54:37;31.38;;;20.20;;
77625;SDS011;66794;43.764;10.436;2023-02-10T12:05:55;30.90;;;19.23;;
77625;SDS011;66794;43.764;10.436;2023-02-10T12:11:10;27.85;;;17.83;;
77625;SDS011;66794;43.764;10.436;2023-02-10T12:16:35;26.13;;;15.20;;
77625;SDS011;66794;43.764;10.436;2023-02-10T12:28:01;28.58;;;16.17;;
77625;SDS011;66794;43.764;10.436;2023-02-10T12:33:02;35.40;;;19.60;;
77625;SDS011;66794;43.764;10.436;2023-02-10T12:38:34;25.80;;;14.82;;
77625;SDS011;66794;43.764;10.436;2023-02-10T12:41:26;21.48;;;14.32;;
77625;SDS011;66794;43.764;10.436;2023-02-10T12:47:05;20.83;;;12.68;;
77625;SDS011;66794;43.764;10.436;2023-02-10T12:49:51;20.50;;;13.30;;
77625;SDS011;66794;43.764;10.436;2023-02-10T12:52:20;23.90;;;14.73;;
77625;SDS011;66794;43.764;10.436;2023-02-10T12:54:55;20.63;;;13.63;;
77625;SDS011;66794;43.764;10.436;2023-02-10T12:57:30;19.83;;;13.07;;
77625;SDS011;66794;43.764;10.436;2023-02-10T13:00:08;27.48;;;11.90;;
77625;SDS011;66794;43.764;10.436;2023-02-10T13:05:22;20.08;;;13.77;;
77625;SDS011;66794;43.764;10.436;2023-02-10T13:07:54;59.42;;;32.58;;
77625;SDS011;66794;43.764;10.436;2023-02-10T13:13:03;19.88;;;13.57;;
77625;SDS011;66794;43.764;10.436;2023-02-10T13:18:20;27.10;;;13.82;;
77625;SDS011;66794;43.764;10.436;2023-02-10T13:20:51;38.47;;;26.30;;
77625;SDS011;66794;43.764;10.436;2023-02-10T13:34:34;23.63;;;13.25;;
77625;SDS011;66794;43.764;10.436;2023-02-10T13:39:51;18.80;;;11.65;;
77625;SDS011;66794;43.764;10.436;2023-02-10T13:42:28;19.58;;;12.35;;
77625;SDS011;66794;43.764;10.436;2023-02-10T13:47:46;21.98;;;12.65;;
77625;SDS011;66794;43.764;10.436;2023-02-10T13:53:00;24.67;;;17.95;;
77625;SDS011;66794;43.764;10.436;2023-02-10T14:00:29;23.75;;;16.50;;
77625;SDS011;66794;43.764;10.436;2023-02-10T14:06:20;67.68;;;52.38;;
77625;SDS011;66794;43.764;10.436;2023-02-10T14:08:39;79.95;;;55.80;;
77625;SDS011;66794;43.764;10.436;2023-02-10T14:13:42;24.33;;;18.45;;
77625;SDS011;66794;43.764;10.436;2023-02-10T14:18:42;21.88;;;14.25;;
77625;SDS011;66794;43.764;10.436;2023-02-10T14:21:12;23.30;;;15.40;;
77625;SDS011;66794;43.764;10.436;2023-02-10T14:23:40;20.35;;;12.65;;
77625;SDS011;66794;43.764;10.436;2023-02-10T14:26:15;25.38;;;15.00;;
77625;SDS011;66794;43.764;10.436;2023-02-10T14:28:48;19.58;;;13.23;;
77625;SDS011;66794;43.764;10.436;2023-02-10T14:31:19;25.83;;;17.27;;
77625;SDS011;66794;43.764;10.436;2023-02-10T14:33:54;44.05;;;32.08;;
77625;SDS011;66794;43.764;10.436;2023-02-10T14:36:24;81.07;;;61.80;;
77625;SDS011;66794;43.764;10.436;2023-02-10T14:38:52;26.25;;;17.88;;
77625;SDS011;66794;43.764;10.436;2023-02-10T14:41:21;24.50;;;18.52;;
77625;SDS011;66794;43.764;10.436;2023-02-10T14:43:48;19.45;;;13.25;;
77625;SDS011;66794;43.764;10.436;2023-02-10T14:49:13;25.27;;;15.65;;
77625;SDS011;66794;43.764;10.436;2023-02-10T14:51:44;30.98;;;23.73;;
77625;SDS011;66794;43.764;10.436;2023-02-10T14:54:24;54.80;;;41.05;;
77625;SDS011;66794;43.764;10.436;2023-02-10T14:56:52;64.35;;;45.08;;
77625;SDS011;66794;43.764;10.436;2023-02-10T14:59:29;28.25;;;21.00;;
77625;SDS011;66794;43.764;10.436;2023-02-10T15:02:00;19.90;;;12.80;;
77625;SDS011;66794;43.764;10.436;2023-02-10T15:04:29;20.80;;;12.85;;
77625;SDS011;66794;43.764;10.436;2023-02-10T15:06:56;20.02;;;13.70;;
77625;SDS011;66794;43.764;10.436;2023-02-10T15:09:44;22.95;;;12.75;;
77625;SDS011;66794;43.764;10.436;2023-02-10T15:12:09;20.58;;;12.82;;
77625;SDS011;66794;43.764;10.436;2023-02-10T15:14:53;37.20;;;24.83;;
77625;SDS011;66794;43.764;10.436;2023-02-10T15:17:25;38.22;;;21.00;;
77625;SDS011;66794;43.764;10.436;2023-02-10T15:19:59;24.27;;;15.02;;
77625;SDS011;66794;43.764;10.436;2023-02-10T15:22:48;24.55;;;15.15;;
77625;SDS011;66794;43.764;10.436;2023-02-10T15:25:35;26.02;;;12.43;;
77625;SDS011;66794;43.764;10.436;2023-02-10T15:33:23;21.40;;;13.70;;
77625;SDS011;66794;43.764;10.436;2023-02-10T15:36:25;46.42;;;32.25;;
77625;SDS011;66794;43.764;10.436;2023-02-10T15:39:01;24.67;;;15.60;;
77625;SDS011;66794;43.764;10.436;2023-02-10T15:41:31;32.47;;;19.67;;
77625;SDS011;66794;43.764;10.436;2023-02-10T15:46:43;40.78;;;25.48;;
77625;SDS011;66794;43.764;10.436;2023-02-10T15:49:11;79.00;;;59.53;;
77625;SDS011;66794;43.764;10.436;2023-02-10T15:51:42;68.32;;;50.17;;
77625;SDS011;66794;43.764;10.436;2023-02-10T15:54:15;43.63;;;21.05;;
77625;SDS011;66794;43.764;10.436;2023-02-10T15:56:53;24.00;;;14.05;;
77625;SDS011;66794;43.764;10.436;2023-02-10T15:59:22;22.95;;;13.88;;
77625;SDS011;66794;43.764;10.436;2023-02-10T16:01:53;22.85;;;14.10;;
77625;SDS011;66794;43.764;10.436;2023-02-10T16:04:19;26.52;;;14.23;;
77625;SDS011;66794;43.764;10.436;2023-02-10T16:06:45;21.48;;;13.65;;
77625;SDS011;66794;43.764;10.436;2023-02-10T16:09:10;26.95;;;14.57;;
77625;SDS011;66794;43.764;10.436;2023-02-10T16:11:36;64.82;;;44.97;;
77625;SDS011;66794;43.764;10.436;2023-02-10T16:14:02;55.33;;;36.08;;
77625;SDS011;66794;43.764;10.436;2023-02-10T16:16:28;57.55;;;40.95;;
77625;SDS011;66794;43.764;10.436;2023-02-10T16:18:53;46.65;;;34.70;;
77625;SDS011;66794;43.764;10.436;2023-02-10T16:21:19;36.00;;;24.58;;
77625;SDS011;66794;43.764;10.436;2023-02-10T16:23:44;32.67;;;21.70;;
77625;SDS011;66794;43.764;10.436;2023-02-10T16:26:11;43.35;;;29.15;;
77625;SDS011;66794;43.764;10.436;2023-02-10T16:28:44;26.67;;;15.25;;
77625;SDS011;66794;43.764;10.436;2023-02-10T16:31:10;61.25;;;21.05;;
77625;SDS011;66794;43.764;10.436;2023-02-10T16:33:35;38.15;;;20.42;;
77625;SDS011;66794;43.764;10.436;2023-02-10T16:36:05;36.58;;;19.98;;
77625;SDS011;66794;43.764;10.436;2023-02-10T16:38:31;31.52;;;16.98;;
77625;SDS011;66794;43.764;10.436;2023-02-10T16:40:58;26.50;;;17.02;;
77625;SDS011;66794;43.764;10.436;2023-02-10T16:43:23;33.97;;;17.45;;
77625;SDS011;66794;43.764;10.436;2023-02-10T16:45:49;36.00;;;20.88;;
77625;SDS011;66794;43.764;10.436;2023-02-10T16:48:14;42.42;;;23.73;;
77625;SDS011;66794;43.764;10.436;2023-02-10T16:50:41;45.90;;;26.23;;
77625;SDS011;66794;43.764;10.436;2023-02-10T16:53:08;47.70;;;28.52;;